Pagrindinis puslapis
METAR-TAF:

METAR-TAF

Oro uostai :

Malmė, Švedija

platuma: 55-33N, ilguma: 013-22E, Aukštis: 106 m

Dabartinis oras

Ataskaita buvo paskelbta 19 minutes, ne 12:20 UTC
Vėjas 9 kt iš Vakarų/Šiaurės Vakarų, svyruoja nuo Vakarų ir Šiaurės/Šiaurės Vakarų
Temperatūra 22°C
Drėgmė 33%
Slėgis 1026 hPa
Matomumas 10 km arba daugiau
nėra debesų žemiau 1500 m ir nėra kamuolinių lietaus debesų

METAR: ESMS 011220Z 30009KT 270V330 CAVOK 22/05 Q1026

Laikas: 14:39 (12:39 UTC)

Prognozė

Ataskaita buvo paskelbta 1 valandą ir 37 minutes, ne 11:02 UTC
Prognozė galioja nuo 01 metu 12 UTC su 02 metu 12 UTC
Vėjas 7 kt iš Šiaurės/Šiaurės Vakarų
Matomumas 10 km arba daugiau
nėra debesų žemiau 1500 m ir nėra kamuolinių lietaus debesų

TAF: ESMS 011102Z 0112/0212 33007KT CAVOK

Orai ataskaitas ir orų prognozės (METAR, TAF).

turimą stotys yra geltonos ir raudonos taškus žemėlapyje.

Perkelti pele per norėdami pamatyti stoties vardą.

Tada spustelėkite, norėdami matyti oro stebėjimo ir prognozės.

Norėdami pakeisti žemėlapį: spustelėkite ant žalios mygtukų su juodo kryžiaus žemyn,; žalią mygtuką su brūkšneliu, jei norite nutolinti; arba žalių rodyklių gretimoms žemėlapius.


METAR-TAF: